createdAt,value
2019-02-18T00:00:41.793Z,13.83
2019-02-18T00:03:11.637Z,13.85
2019-02-18T00:05:40.353Z,13.08
2019-02-18T00:08:10.081Z,13.57
2019-02-18T00:10:38.878Z,12.68
2019-02-18T00:13:07.640Z,13.25
2019-02-18T00:15:36.361Z,13.03
2019-02-18T00:18:05.089Z,13.10
2019-02-18T00:20:33.761Z,13.32
2019-02-18T00:23:02.536Z,14.13
2019-02-18T00:25:31.243Z,13.20
2019-02-18T00:27:59.912Z,12.60
2019-02-18T00:30:28.665Z,12.82
2019-02-18T00:32:57.409Z,14.05
2019-02-18T00:35:26.104Z,14.07
2019-02-18T00:37:54.765Z,13.40
2019-02-18T00:40:23.562Z,13.15
2019-02-18T00:42:52.331Z,13.28
2019-02-18T00:45:20.988Z,13.33
2019-02-18T00:47:49.685Z,13.60
2019-02-18T00:50:18.363Z,12.28
2019-02-18T00:52:47.128Z,13.40
2019-02-18T00:55:15.793Z,12.37
2019-02-18T00:57:44.511Z,12.40
2019-02-18T01:00:13.660Z,13.27
2019-02-18T01:02:43.408Z,12.68
2019-02-18T01:05:12.141Z,12.85
2019-02-18T01:07:40.793Z,13.30
2019-02-18T01:10:09.661Z,12.53
2019-02-18T01:12:38.398Z,12.60
2019-02-18T01:15:08.064Z,12.15
2019-02-18T01:17:36.701Z,12.43
2019-02-18T01:20:06.067Z,12.90
2019-02-18T01:22:34.731Z,13.13
2019-02-18T01:25:03.375Z,12.65
2019-02-18T01:27:32.111Z,12.35
2019-02-18T01:30:00.863Z,13.03
2019-02-18T01:32:29.538Z,13.05
2019-02-18T01:34:58.171Z,13.05
2019-02-18T01:37:26.846Z,11.78
2019-02-18T01:39:55.509Z,11.97
2019-02-18T01:42:24.186Z,11.93
2019-02-18T01:44:52.918Z,11.50
2019-02-18T01:47:21.669Z,11.25
2019-02-18T01:49:50.399Z,12.53
2019-02-18T01:52:19.124Z,11.63
2019-02-18T01:54:47.859Z,11.48
2019-02-18T01:57:16.512Z,12.53
2019-02-18T01:59:45.449Z,11.65
2019-02-18T02:02:14.106Z,11.95
2019-02-18T02:04:42.841Z,11.45
2019-02-18T02:07:11.506Z,11.47
2019-02-18T02:09:40.170Z,11.57
2019-02-18T02:12:08.903Z,11.97
2019-02-18T02:14:37.586Z,11.50
2019-02-18T02:17:07.217Z,11.70
2019-02-18T02:19:37.354Z,11.28
2019-02-18T02:22:06.002Z,11.15
2019-02-18T02:24:34.670Z,11.90
2019-02-18T02:27:03.363Z,11.73
2019-02-18T02:29:32.987Z,11.88
2019-02-18T02:32:01.724Z,12.60
2019-02-18T02:34:30.385Z,12.18
2019-02-18T02:36:59.189Z,11.18
2019-02-18T02:39:27.866Z,11.20
2019-02-18T02:41:56.598Z,10.95
2019-02-18T02:44:25.266Z,11.38
2019-02-18T02:46:53.952Z,11.20
2019-02-18T02:49:22.680Z,11.22
2019-02-18T02:51:51.410Z,10.60
2019-02-18T02:54:20.075Z,11.38
2019-02-18T02:56:48.728Z,11.57
2019-02-18T02:59:17.415Z,11.35
2019-02-18T03:01:46.132Z,11.60
2019-02-18T03:04:14.807Z,10.80
2019-02-18T03:06:43.534Z,11.45
2019-02-18T03:09:13.281Z,11.78
2019-02-18T03:11:41.959Z,11.50
2019-02-18T03:14:10.716Z,12.10
2019-02-18T03:16:39.359Z,11.90
2019-02-18T03:19:08.068Z,11.15
2019-02-18T03:21:36.788Z,11.10
2019-02-18T03:24:06.621Z,11.85
2019-02-18T03:26:35.337Z,11.67
2019-02-18T03:29:25.998Z,12.10
2019-02-18T03:31:54.662Z,11.97
2019-02-18T03:34:25.474Z,13.00
2019-02-18T03:36:54.209Z,11.50
2019-02-18T03:39:22.900Z,11.80
2019-02-18T03:41:51.578Z,11.73
2019-02-18T03:44:20.215Z,11.43
2019-02-18T03:46:50.736Z,12.00
2019-02-18T03:49:19.243Z,11.20
2019-02-18T03:51:47.960Z,12.33
2019-02-18T03:54:16.624Z,11.90
2019-02-18T03:56:45.304Z,11.88
2019-02-18T03:59:13.964Z,12.10
2019-02-18T04:01:42.620Z,12.07
2019-02-18T04:04:11.362Z,12.13
2019-02-18T04:06:40.030Z,11.30
2019-02-18T04:09:08.743Z,11.40
2019-02-18T04:11:37.479Z,12.50
2019-02-18T04:14:06.166Z,11.20
2019-02-18T04:16:34.830Z,11.22
2019-02-18T04:19:03.508Z,11.33
2019-02-18T04:21:32.171Z,12.00
2019-02-18T04:24:00.972Z,11.18
2019-02-18T04:26:29.640Z,11.08
2019-02-18T04:28:58.300Z,12.13
2019-02-18T04:31:27.044Z,11.23
2019-02-18T04:33:55.754Z,12.17
2019-02-18T04:36:24.423Z,11.27
2019-02-18T04:38:54.355Z,11.93
2019-02-18T04:41:23.238Z,11.03
2019-02-18T04:43:51.898Z,11.87
2019-02-18T04:46:20.576Z,11.60
2019-02-18T04:48:49.235Z,11.43
2019-02-18T04:51:17.909Z,11.73
2019-02-18T04:53:46.659Z,11.77
2019-02-18T04:56:15.345Z,12.50
2019-02-18T04:58:44.034Z,10.90
2019-02-18T05:01:12.814Z,11.83
2019-02-18T05:03:41.476Z,11.47
2019-02-18T05:06:10.208Z,11.48
2019-02-18T05:08:38.936Z,11.30
2019-02-18T05:11:07.660Z,11.00
2019-02-18T05:13:36.332Z,11.23
2019-02-18T05:16:05.019Z,11.10
2019-02-18T05:18:33.747Z,10.80
2019-02-18T05:21:02.502Z,11.77
2019-02-18T05:23:31.397Z,11.90
2019-02-18T05:26:00.205Z,11.40
2019-02-18T05:28:28.944Z,11.03
2019-02-18T05:30:57.673Z,11.90
2019-02-18T05:33:26.304Z,10.87
2019-02-18T05:35:55.908Z,11.70
2019-02-18T05:38:24.877Z,12.20
2019-02-18T05:40:53.582Z,11.27
2019-02-18T05:43:22.234Z,11.22
2019-02-18T05:45:51.001Z,10.90
2019-02-18T05:48:19.684Z,10.97
2019-02-18T05:50:48.420Z,10.97
2019-02-18T05:53:17.116Z,11.37
2019-02-18T05:55:45.883Z,11.53
2019-02-18T05:58:14.562Z,10.77
2019-02-18T06:00:43.292Z,10.97
2019-02-18T06:03:12.032Z,11.57
2019-02-18T06:05:40.789Z,10.85
2019-02-18T06:08:09.539Z,10.88
2019-02-18T06:10:39.162Z,11.78
2019-02-18T06:13:07.849Z,10.70
2019-02-18T06:15:36.573Z,10.60
2019-02-18T06:18:05.318Z,9.93
2019-02-18T06:20:34.035Z,10.80
2019-02-18T06:23:02.803Z,10.30
2019-02-18T06:25:31.538Z,11.28
2019-02-18T06:28:00.238Z,11.13
2019-02-18T06:30:28.882Z,11.50
2019-02-18T06:32:57.583Z,10.78
2019-02-18T06:35:26.272Z,10.95
2019-02-18T06:37:54.947Z,11.17
2019-02-18T06:40:23.702Z,10.68
2019-02-18T06:42:52.379Z,10.43
2019-02-18T06:45:40.124Z,10.57
2019-02-18T06:48:30.825Z,10.60
2019-02-18T06:50:59.508Z,10.07
2019-02-18T06:53:28.220Z,11.17
2019-02-18T06:55:56.895Z,11.60
2019-02-18T06:58:44.546Z,10.17
2019-02-18T07:01:44.636Z,10.40
2019-02-18T07:04:28.449Z,10.28
2019-02-18T07:07:25.250Z,10.03
2019-02-18T07:10:12.986Z,10.48
2019-02-18T07:12:48.144Z,9.87
2019-02-18T07:15:16.897Z,10.70
2019-02-18T07:17:45.614Z,10.10
2019-02-18T07:20:14.331Z,10.13
2019-02-18T07:22:43.013Z,10.10
2019-02-18T07:25:12.554Z,10.40
2019-02-18T07:27:41.212Z,11.05
2019-02-18T07:30:13.937Z,11.03
2019-02-18T07:32:42.614Z,10.72
2019-02-18T07:35:11.277Z,10.83
2019-02-18T07:37:41.018Z,10.72
2019-02-18T07:40:10.089Z,10.50
2019-02-18T07:42:38.814Z,10.95
2019-02-18T07:45:07.906Z,11.00
2019-02-18T07:47:36.633Z,11.22
2019-02-18T07:50:06.072Z,10.73
2019-02-18T07:52:34.785Z,10.93
2019-02-18T07:55:03.586Z,11.43
2019-02-18T07:57:32.282Z,10.98
2019-02-18T08:00:00.948Z,10.60
2019-02-18T08:02:29.659Z,10.98
2019-02-18T08:04:58.382Z,11.50
2019-02-18T08:07:27.145Z,11.05
2019-02-18T08:09:55.866Z,11.27
2019-02-18T08:12:24.546Z,11.68
2019-02-18T08:14:53.230Z,11.48
2019-02-18T08:17:21.941Z,11.30
2019-02-18T08:19:50.616Z,11.10
2019-02-18T08:22:19.345Z,11.13
2019-02-18T08:24:48.034Z,11.63
2019-02-18T08:27:16.717Z,11.80
2019-02-18T08:29:45.469Z,11.57
2019-02-18T08:32:14.228Z,11.07
2019-02-18T08:34:42.913Z,11.50
2019-02-18T08:37:11.617Z,11.10
2019-02-18T08:39:40.545Z,11.25
2019-02-18T08:42:09.231Z,11.57
2019-02-18T08:44:37.959Z,11.77
2019-02-18T08:47:07.705Z,11.40
2019-02-18T08:49:36.423Z,12.03
2019-02-18T08:52:05.100Z,11.43
2019-02-18T08:54:33.824Z,12.30
2019-02-18T08:57:02.675Z,12.28
2019-02-18T08:59:31.348Z,12.43
2019-02-18T09:02:00.138Z,11.50
2019-02-18T09:04:28.980Z,12.37
2019-02-18T09:06:57.745Z,11.65
2019-02-18T09:09:26.511Z,12.05
2019-02-18T09:11:55.260Z,12.05
2019-02-18T09:14:25.041Z,12.27
2019-02-18T09:16:53.778Z,11.95
2019-02-18T09:19:22.620Z,12.10
2019-02-18T09:21:58.319Z,12.18
2019-02-18T09:24:31.738Z,11.75
2019-02-18T09:27:00.597Z,12.33
2019-02-18T09:29:29.460Z,12.33
2019-02-18T09:31:58.328Z,12.60
2019-02-18T09:34:27.106Z,12.60
2019-02-18T09:36:56.286Z,11.55
2019-02-18T09:39:31.257Z,11.63
2019-02-18T09:41:55.802Z,11.12
2019-02-18T09:44:24.621Z,11.13
2019-02-18T09:46:53.263Z,11.70
2019-02-18T09:49:22.111Z,11.85
2019-02-18T09:51:52.060Z,11.75
2019-02-18T09:54:20.924Z,11.80
2019-02-18T09:56:49.726Z,10.85
2019-02-18T09:59:18.468Z,11.20
2019-02-18T10:01:47.144Z,10.93
2019-02-18T10:04:15.853Z,11.40
2019-02-18T10:06:44.599Z,11.67
2019-02-18T10:09:13.259Z,11.80
2019-02-18T10:11:41.947Z,11.70
2019-02-18T10:14:11.711Z,11.48
2019-02-18T10:16:40.579Z,11.77
2019-02-18T10:19:09.306Z,11.68
2019-02-18T10:21:38.043Z,11.33
2019-02-18T10:24:06.909Z,11.33
2019-02-18T10:26:35.680Z,10.48
2019-02-18T10:29:04.405Z,11.23
2019-02-18T10:31:33.187Z,11.00
2019-02-18T10:34:02.000Z,11.10
2019-02-18T10:36:30.830Z,10.23
2019-02-18T10:38:59.508Z,10.88
2019-02-18T10:41:28.333Z,10.70
2019-02-18T10:43:57.020Z,10.63
2019-02-18T10:46:25.823Z,10.33
2019-02-18T10:48:54.877Z,9.40
2019-02-18T10:51:23.667Z,10.30
2019-02-18T10:53:52.468Z,9.53
2019-02-18T10:56:21.342Z,10.07
2019-02-18T10:58:50.043Z,10.40
2019-02-18T11:01:18.794Z,11.25
2019-02-18T11:03:47.589Z,11.57
2019-02-18T11:06:16.395Z,12.23
2019-02-18T11:08:45.368Z,11.83
2019-02-18T11:11:16.977Z,12.50
2019-02-18T11:13:44.690Z,12.05
2019-02-18T11:16:13.545Z,11.20
2019-02-18T11:18:42.464Z,11.38
2019-02-18T11:21:11.452Z,11.10
2019-02-18T11:23:40.209Z,10.30
2019-02-18T11:26:09.111Z,9.63
2019-02-18T11:28:37.943Z,8.90
2019-02-18T11:31:06.790Z,8.75
2019-02-18T11:33:35.537Z,9.85
2019-02-18T11:36:04.245Z,9.30
2019-02-18T11:38:34.123Z,9.57
2019-02-18T11:41:02.960Z,9.58
2019-02-18T11:43:31.742Z,8.80
2019-02-18T11:46:00.611Z,8.80
2019-02-18T11:48:29.372Z,8.75
2019-02-18T11:50:58.098Z,8.67
2019-02-18T11:53:26.767Z,10.00
2019-02-18T11:55:55.547Z,9.70
2019-02-18T11:58:24.214Z,10.18
2019-02-18T12:00:52.946Z,9.65
2019-02-18T12:03:21.781Z,10.75
2019-02-18T12:05:50.562Z,10.05
2019-02-18T12:08:19.286Z,10.43
2019-02-18T12:10:48.031Z,10.53
2019-02-18T12:13:16.762Z,9.73
2019-02-18T12:15:45.527Z,10.65
2019-02-18T12:18:14.435Z,9.98
2019-02-18T12:20:43.447Z,10.80
2019-02-18T12:23:12.412Z,10.73
2019-02-18T12:25:41.198Z,10.72
2019-02-18T12:28:10.111Z,10.43
2019-02-18T12:30:38.897Z,9.88
2019-02-18T12:33:07.555Z,10.43
2019-02-18T12:35:36.384Z,10.48
2019-02-18T12:38:05.328Z,10.37
2019-02-18T12:40:34.100Z,10.98
2019-02-18T12:43:02.839Z,10.27
2019-02-18T12:45:31.606Z,11.03
2019-02-18T12:48:00.384Z,11.03
2019-02-18T12:50:29.115Z,10.43
2019-02-18T12:52:58.147Z,10.88
2019-02-18T12:55:27.201Z,10.32
2019-02-18T12:57:56.033Z,11.03
2019-02-18T13:00:24.791Z,11.22
2019-02-18T13:02:53.648Z,11.57
2019-02-18T13:05:22.923Z,10.25
2019-02-18T13:07:51.698Z,10.82
2019-02-18T13:10:20.724Z,11.37
2019-02-18T13:12:49.483Z,11.13
2019-02-18T13:15:18.240Z,11.65
2019-02-18T13:17:46.992Z,10.95
2019-02-18T13:20:18.047Z,12.18
2019-02-18T13:22:46.818Z,11.93
2019-02-18T13:25:15.541Z,11.40
2019-02-18T13:27:45.747Z,11.50
2019-02-18T13:30:14.983Z,11.95
2019-02-18T13:32:44.201Z,11.78
2019-02-18T13:35:12.946Z,11.83
2019-02-18T13:37:41.738Z,12.20
2019-02-18T13:40:10.932Z,11.75
2019-02-18T13:42:39.621Z,12.37
2019-02-18T13:45:08.371Z,11.65
2019-02-18T13:47:37.131Z,12.03
2019-02-18T13:50:06.191Z,12.73
2019-02-18T13:52:34.930Z,11.43
2019-02-18T13:55:03.842Z,12.73
2019-02-18T13:57:32.862Z,11.88
2019-02-18T14:00:02.070Z,11.55
2019-02-18T14:02:32.625Z,12.25
2019-02-18T14:05:01.377Z,12.00
2019-02-18T14:07:30.117Z,11.87
2019-02-18T14:09:58.842Z,11.83
2019-02-18T14:12:27.581Z,12.55
2019-02-18T14:14:56.525Z,11.77
2019-02-18T14:17:25.299Z,12.03
2019-02-18T14:19:54.107Z,11.75
2019-02-18T14:22:22.852Z,12.10
2019-02-18T14:24:51.699Z,11.22
2019-02-18T14:27:20.518Z,10.85
2019-02-18T14:29:49.584Z,11.40
2019-02-18T14:32:18.508Z,12.03
2019-02-18T14:34:47.242Z,12.45
2019-02-18T14:37:15.993Z,11.43
2019-02-18T14:39:44.811Z,11.00
2019-02-18T14:42:13.582Z,11.15
2019-02-18T14:44:42.917Z,11.55
2019-02-18T14:47:11.679Z,11.97
2019-02-18T14:49:40.422Z,11.53
2019-02-18T14:52:09.342Z,12.70
2019-02-18T14:54:38.180Z,11.83
2019-02-18T14:57:07.060Z,11.57
2019-02-18T14:59:35.803Z,11.18
2019-02-18T15:02:04.660Z,11.68
2019-02-18T15:04:33.461Z,11.50
2019-02-18T15:07:02.187Z,10.58
2019-02-18T15:09:30.908Z,11.12
2019-02-18T15:11:59.675Z,11.25
2019-02-18T15:14:28.402Z,12.20
2019-02-18T15:16:57.416Z,12.03
2019-02-18T15:19:26.206Z,11.05
2019-02-18T15:21:54.974Z,11.03
2019-02-18T15:24:23.769Z,11.60
2019-02-18T15:26:52.648Z,11.20
2019-02-18T15:29:21.434Z,11.05
2019-02-18T15:31:50.547Z,11.88
2019-02-18T15:34:19.310Z,11.03
2019-02-18T15:36:48.139Z,11.00
2019-02-18T15:39:16.966Z,12.00
2019-02-18T15:41:45.746Z,11.30
2019-02-18T15:44:14.635Z,12.13
2019-02-18T15:46:43.681Z,11.30
2019-02-18T15:49:12.494Z,10.85
2019-02-18T15:51:41.376Z,11.65
2019-02-18T15:54:10.423Z,10.98
2019-02-18T15:56:39.262Z,10.60
2019-02-18T15:59:08.071Z,12.15
2019-02-18T16:01:37.416Z,10.65
2019-02-18T16:04:06.195Z,11.08
2019-02-18T16:06:35.005Z,11.60
2019-02-18T16:09:05.642Z,11.73
2019-02-18T16:11:34.423Z,11.28
2019-02-18T16:14:03.182Z,10.75
2019-02-18T16:16:32.245Z,11.80
2019-02-18T16:19:01.158Z,10.65
2019-02-18T16:21:29.920Z,11.22
2019-02-18T16:23:58.740Z,11.48
2019-02-18T16:26:27.587Z,11.97
2019-02-18T16:28:56.388Z,11.73
2019-02-18T16:31:25.229Z,11.45
2019-02-18T16:33:53.978Z,12.07
2019-02-18T16:36:22.819Z,11.60
2019-02-18T16:38:51.882Z,10.25
2019-02-18T16:41:20.627Z,11.33
2019-02-18T16:43:51.336Z,11.05
2019-02-18T16:46:20.096Z,11.40
2019-02-18T16:48:49.178Z,11.22
2019-02-18T16:51:19.782Z,12.03
2019-02-18T16:53:48.656Z,11.25
2019-02-18T16:56:17.505Z,10.90
2019-02-18T16:58:46.333Z,10.43
2019-02-18T17:01:15.133Z,11.10
2019-02-18T17:03:44.032Z,11.10
2019-02-18T17:06:12.829Z,11.18
2019-02-18T17:08:41.609Z,10.45
2019-02-18T17:11:10.418Z,11.53
2019-02-18T17:13:39.231Z,11.53
2019-02-18T17:16:08.015Z,11.00
2019-02-18T17:18:37.048Z,11.50
2019-02-18T17:21:06.050Z,11.38
2019-02-18T17:23:34.739Z,11.12
2019-02-18T17:26:03.519Z,10.75
2019-02-18T17:28:32.600Z,11.93
2019-02-18T17:31:01.436Z,11.40
2019-02-18T17:33:30.436Z,11.63
2019-02-18T17:35:59.254Z,11.65
2019-02-18T17:38:28.124Z,11.68
2019-02-18T17:40:57.173Z,13.00
2019-02-18T17:43:26.431Z,12.47
2019-02-18T17:45:55.304Z,11.53
2019-02-18T17:48:24.301Z,11.93
2019-02-18T17:50:53.006Z,11.90
2019-02-18T17:53:21.841Z,11.38
2019-02-18T17:55:50.678Z,10.98
2019-02-18T17:58:19.523Z,10.10
2019-02-18T18:00:50.391Z,10.05
2019-02-18T18:03:19.222Z,10.88
2019-02-18T18:05:48.185Z,10.48
2019-02-18T18:08:17.081Z,11.03
2019-02-18T18:10:45.889Z,14.45
2019-02-18T18:13:14.748Z,18.65
2019-02-18T18:15:43.656Z,21.65
2019-02-18T18:18:12.447Z,20.00
2019-02-18T18:20:41.772Z,23.55
2019-02-18T18:23:10.638Z,22.00
2019-02-18T18:25:39.512Z,26.77
2019-02-18T18:28:08.285Z,34.75
2019-02-18T18:30:37.254Z,25.17
2019-02-18T18:33:06.069Z,20.70
2019-02-18T18:35:35.216Z,17.10
2019-02-18T18:38:04.246Z,14.27
2019-02-18T18:40:33.253Z,15.45
2019-02-18T18:43:02.304Z,13.68
2019-02-18T18:45:31.442Z,12.93
2019-02-18T18:48:01.483Z,12.73
2019-02-18T18:50:30.746Z,12.55
2019-02-18T18:52:59.803Z,13.32
2019-02-18T18:55:28.890Z,11.05
2019-02-18T18:57:57.736Z,11.68
2019-02-18T19:00:26.531Z,10.60
2019-02-18T19:02:55.402Z,11.65
2019-02-18T19:05:24.110Z,10.88
2019-02-18T19:07:52.873Z,10.95
2019-02-18T19:10:21.775Z,11.53
2019-02-18T19:12:50.569Z,11.35
2019-02-18T19:15:20.476Z,11.53
2019-02-18T19:17:49.274Z,10.98
2019-02-18T19:20:18.164Z,11.53
2019-02-18T19:22:47.011Z,11.60
2019-02-18T19:25:15.786Z,10.93
2019-02-18T19:27:44.628Z,11.22
2019-02-18T19:30:14.582Z,11.73
2019-02-18T19:32:43.361Z,11.43
2019-02-18T19:35:12.122Z,11.78
2019-02-18T19:37:41.026Z,12.50
2019-02-18T19:40:10.711Z,12.25
2019-02-18T19:42:39.858Z,11.05
2019-02-18T19:45:10.017Z,12.37
2019-02-18T19:47:39.273Z,11.85
2019-02-18T19:50:08.148Z,11.20
2019-02-18T19:52:36.964Z,10.72
2019-02-18T19:55:08.984Z,11.50
2019-02-18T19:57:37.822Z,12.10
2019-02-18T20:00:08.214Z,11.75
2019-02-18T20:02:37.763Z,10.98
2019-02-18T20:05:06.654Z,10.85
2019-02-18T20:07:35.464Z,11.63
2019-02-18T20:10:04.332Z,10.95
2019-02-18T20:12:33.109Z,12.30
2019-02-18T20:15:02.076Z,11.55
2019-02-18T20:17:32.636Z,12.28
2019-02-18T20:20:01.558Z,11.68
2019-02-18T20:22:30.784Z,12.15
2019-02-18T20:24:59.736Z,11.63
2019-02-18T20:27:28.736Z,11.15
2019-02-18T20:29:58.296Z,11.15
2019-02-18T20:32:27.611Z,12.40
2019-02-18T20:34:56.633Z,11.35
2019-02-18T20:37:25.461Z,11.88
2019-02-18T20:39:54.267Z,11.83
2019-02-18T20:42:23.261Z,11.53
2019-02-18T20:44:54.279Z,11.35
2019-02-18T20:47:23.020Z,11.53
2019-02-18T20:49:51.935Z,11.53
2019-02-18T20:52:20.736Z,11.33
2019-02-18T20:54:50.694Z,11.48
2019-02-18T20:57:19.478Z,11.53
2019-02-18T20:59:48.306Z,11.88
2019-02-18T21:02:18.369Z,12.20
2019-02-18T21:04:47.823Z,11.60
2019-02-18T21:07:16.681Z,11.38
2019-02-18T21:09:45.451Z,11.53
2019-02-18T21:12:19.987Z,11.15
2019-02-18T21:14:45.239Z,11.75
2019-02-18T21:17:14.083Z,10.58
2019-02-18T21:19:42.835Z,10.53
2019-02-18T21:22:11.592Z,11.45
2019-02-18T21:24:40.427Z,11.08
2019-02-18T21:27:09.998Z,10.98
2019-02-18T21:29:39.044Z,11.33
2019-02-18T21:32:07.979Z,11.43
2019-02-18T21:34:37.031Z,11.28
2019-02-18T21:37:05.821Z,11.90
2019-02-18T21:39:34.594Z,11.73
2019-02-18T21:42:03.442Z,10.90
2019-02-18T21:44:32.248Z,10.78
2019-02-18T21:47:01.983Z,10.93
2019-02-18T21:49:30.726Z,11.45
2019-02-18T21:52:02.145Z,10.53
2019-02-18T21:54:31.870Z,10.58
2019-02-18T21:57:00.712Z,11.05
2019-02-18T21:59:31.006Z,11.35
2019-02-18T22:01:59.769Z,10.58
2019-02-18T22:04:28.617Z,11.18
2019-02-18T22:06:57.494Z,11.40
2019-02-18T22:09:26.286Z,10.43
2019-02-18T22:11:55.027Z,11.25
2019-02-18T22:14:23.891Z,11.18
2019-02-18T22:16:52.575Z,10.35
2019-02-18T22:19:22.354Z,11.03
2019-02-18T22:21:51.109Z,10.58
2019-02-18T22:24:19.953Z,11.35
2019-02-18T22:26:48.784Z,10.85
2019-02-18T22:29:17.557Z,10.63
2019-02-18T22:31:46.816Z,10.40
2019-02-18T22:34:15.577Z,10.48
2019-02-18T22:36:44.355Z,11.38
2019-02-18T22:39:13.165Z,10.93
2019-02-18T22:41:44.128Z,10.53
2019-02-18T22:44:13.108Z,10.80
2019-02-18T22:46:41.980Z,10.75
2019-02-18T22:49:10.843Z,11.70
2019-02-18T22:51:39.663Z,10.60
2019-02-18T22:54:08.419Z,10.10
2019-02-18T22:56:37.140Z,10.63
2019-02-18T22:59:05.914Z,10.55
2019-02-18T23:01:35.151Z,10.78
2019-02-18T23:04:04.702Z,10.88
2019-02-18T23:06:33.451Z,10.70
2019-02-18T23:09:02.202Z,11.15
2019-02-18T23:11:30.939Z,11.38
2019-02-18T23:13:59.723Z,10.40
2019-02-18T23:16:28.463Z,10.70
2019-02-18T23:18:57.204Z,10.20
2019-02-18T23:21:26.201Z,10.60
2019-02-18T23:23:54.889Z,10.82
2019-02-18T23:26:23.617Z,10.90
2019-02-18T23:28:52.376Z,10.93
2019-02-18T23:31:21.258Z,10.15
2019-02-18T23:33:49.967Z,10.75
2019-02-18T23:36:18.706Z,10.32
2019-02-18T23:38:47.410Z,9.75
2019-02-18T23:41:16.130Z,10.30
2019-02-18T23:43:44.887Z,9.78
2019-02-18T23:46:13.623Z,10.25
2019-02-18T23:48:42.269Z,10.53
2019-02-18T23:51:11.004Z,10.10
2019-02-18T23:53:39.707Z,11.22
2019-02-18T23:56:08.471Z,10.65
2019-02-18T23:58:37.144Z,10.40
